createdAt,value
2024-03-24T00:00:58.606Z,8.58
2024-03-24T00:01:58.611Z,8.66
2024-03-24T00:02:58.601Z,8.65
2024-03-24T00:03:58.599Z,8.73
2024-03-24T00:04:58.594Z,8.77
2024-03-24T00:05:58.586Z,8.83
2024-03-24T00:06:58.577Z,8.89
2024-03-24T00:07:58.575Z,8.95
2024-03-24T00:08:58.890Z,9.01
2024-03-24T00:09:58.573Z,9.02
2024-03-24T00:10:58.557Z,9.14
2024-03-24T00:11:58.555Z,9.13
2024-03-24T00:12:58.545Z,9.14
2024-03-24T00:13:58.548Z,9.15
2024-03-24T00:14:58.535Z,8.99
2024-03-24T00:15:58.541Z,9.11
2024-03-24T00:16:58.522Z,9.14
2024-03-24T00:17:58.515Z,9.10
2024-03-24T00:18:58.517Z,8.99
2024-03-24T00:19:58.512Z,8.99
2024-03-24T00:20:58.498Z,9.02
2024-03-24T00:21:58.495Z,9.01
2024-03-24T00:22:58.496Z,8.94
2024-03-24T00:23:58.488Z,8.92
2024-03-24T00:24:58.488Z,8.91
2024-03-24T00:25:58.481Z,9.02
2024-03-24T00:26:58.469Z,9.05
2024-03-24T00:27:58.472Z,9.05
2024-03-24T00:28:58.460Z,9.23
2024-03-24T00:29:58.451Z,9.14
2024-03-24T00:30:58.448Z,9.21
2024-03-24T00:31:58.477Z,9.17
2024-03-24T00:32:58.441Z,9.05
2024-03-24T00:33:58.433Z,9.04
2024-03-24T00:34:58.425Z,8.98
2024-03-24T00:35:58.435Z,8.92
2024-03-24T00:36:58.416Z,8.68
2024-03-24T00:37:58.410Z,8.71
2024-03-24T00:38:58.416Z,8.71
2024-03-24T00:39:58.402Z,8.92
2024-03-24T00:40:58.407Z,8.71
2024-03-24T00:41:58.403Z,8.77
2024-03-24T00:42:58.384Z,8.74
2024-03-24T00:43:58.378Z,8.77
2024-03-24T00:44:58.384Z,8.81
2024-03-24T00:45:58.371Z,8.79
2024-03-24T00:46:58.367Z,8.66
2024-03-24T00:47:58.385Z,8.71
2024-03-24T00:48:58.347Z,8.76
2024-03-24T00:49:58.350Z,8.73
2024-03-24T00:50:58.340Z,8.77
2024-03-24T00:51:58.344Z,8.76
2024-03-24T00:52:58.332Z,8.80
2024-03-24T00:53:58.334Z,8.87
2024-03-24T00:54:58.326Z,8.84
2024-03-24T00:55:58.314Z,8.89
2024-03-24T00:56:58.314Z,9.02
2024-03-24T00:57:58.306Z,9.04
2024-03-24T00:58:58.299Z,9.08
2024-03-24T00:59:58.299Z,8.95
2024-03-24T01:00:58.287Z,9.01
2024-03-24T01:01:58.292Z,8.98
2024-03-24T01:02:58.274Z,9.01
2024-03-24T01:03:58.299Z,8.96
2024-03-24T01:04:58.266Z,8.96
2024-03-24T01:05:58.261Z,8.89
2024-03-24T01:06:58.251Z,8.94
2024-03-24T01:07:58.258Z,8.92
2024-03-24T01:08:58.258Z,8.95
2024-03-24T01:09:58.246Z,8.89
2024-03-24T01:10:58.246Z,8.99
2024-03-24T01:11:58.239Z,9.08
2024-03-24T01:12:58.224Z,9.13
2024-03-24T01:13:58.221Z,9.18
2024-03-24T01:14:58.211Z,9.08
2024-03-24T01:15:58.207Z,9.21
2024-03-24T01:16:58.199Z,9.17
2024-03-24T01:17:58.201Z,9.21
2024-03-24T01:18:58.188Z,9.13
2024-03-24T01:19:58.197Z,9.08
2024-03-24T01:20:58.194Z,9.15
2024-03-24T01:21:58.187Z,9.04
2024-03-24T01:22:58.172Z,9.18
2024-03-24T01:23:58.185Z,9.04
2024-03-24T01:24:58.159Z,9.05
2024-03-24T01:25:58.167Z,8.92
2024-03-24T01:26:58.171Z,8.92
2024-03-24T01:27:58.152Z,8.86
2024-03-24T01:28:58.136Z,8.84
2024-03-24T01:29:58.133Z,8.89
2024-03-24T01:30:58.128Z,8.80
2024-03-24T01:31:58.449Z,8.71
2024-03-24T01:32:58.120Z,8.71
2024-03-24T01:33:58.105Z,8.77
2024-03-24T01:34:58.104Z,8.59
2024-03-24T01:35:58.119Z,8.45
2024-03-24T01:36:58.089Z,8.48
2024-03-24T01:37:58.097Z,8.48
2024-03-24T01:38:58.083Z,8.36
2024-03-24T01:39:58.077Z,8.34
2024-03-24T01:40:58.086Z,8.23
2024-03-24T01:41:58.065Z,8.15
2024-03-24T01:42:58.064Z,8.05
2024-03-24T01:43:58.060Z,7.95
2024-03-24T01:44:58.050Z,8.04
2024-03-24T01:45:58.046Z,7.98
2024-03-24T01:46:58.047Z,7.90
2024-03-24T01:47:58.036Z,7.97
2024-03-24T01:48:58.030Z,8.11
2024-03-24T01:49:58.032Z,8.10
2024-03-24T01:50:58.021Z,8.22
2024-03-24T01:51:58.029Z,8.30
2024-03-24T01:52:58.008Z,8.28
2024-03-24T01:53:58.004Z,8.30
2024-03-24T01:54:58.008Z,8.40
2024-03-24T01:55:57.993Z,8.40
2024-03-24T01:56:57.994Z,8.61
2024-03-24T01:57:57.980Z,8.48
2024-03-24T01:58:57.978Z,8.48
2024-03-24T01:59:57.976Z,8.65
2024-03-24T02:00:57.960Z,8.74
2024-03-24T02:01:57.961Z,8.74
2024-03-24T02:02:57.955Z,8.86
2024-03-24T02:03:57.953Z,8.71
2024-03-24T02:04:57.942Z,8.74
2024-03-24T02:05:57.939Z,8.83
2024-03-24T02:06:57.931Z,8.86
2024-03-24T02:07:57.942Z,8.76
2024-03-24T02:08:57.920Z,8.86
2024-03-24T02:09:57.916Z,8.84
2024-03-24T02:10:57.908Z,8.84
2024-03-24T02:11:57.903Z,8.76
2024-03-24T02:12:57.894Z,8.84
2024-03-24T02:13:57.901Z,8.91
2024-03-24T02:14:57.891Z,9.02
2024-03-24T02:15:57.880Z,9.01
2024-03-24T02:16:57.873Z,9.14
2024-03-24T02:18:00.646Z,9.11
2024-03-24T02:18:57.869Z,9.17
2024-03-24T02:19:57.873Z,9.15
2024-03-24T02:20:57.854Z,9.17
2024-03-24T02:21:57.848Z,9.14
2024-03-24T02:22:57.847Z,9.08
2024-03-24T02:23:57.857Z,9.08
2024-03-24T02:24:57.836Z,9.11
2024-03-24T02:25:57.832Z,9.11
2024-03-24T02:26:57.824Z,9.17
2024-03-24T02:27:57.967Z,9.05
2024-03-24T02:28:57.809Z,9.02
2024-03-24T02:29:57.808Z,8.89
2024-03-24T02:30:57.801Z,8.96
2024-03-24T02:31:57.820Z,8.95
2024-03-24T02:32:57.788Z,8.89
2024-03-24T02:33:57.781Z,8.79
2024-03-24T02:34:57.820Z,8.73
2024-03-24T02:35:57.782Z,8.73
2024-03-24T02:36:57.763Z,8.77
2024-03-24T02:37:57.763Z,8.68
2024-03-24T02:38:57.759Z,8.73
2024-03-24T02:39:57.762Z,8.71
2024-03-24T02:40:57.796Z,8.65
2024-03-24T02:41:57.747Z,8.77
2024-03-24T02:42:57.746Z,8.77
2024-03-24T02:43:57.729Z,8.76
2024-03-24T02:44:57.768Z,8.95
2024-03-24T02:45:57.727Z,8.92
2024-03-24T02:46:57.718Z,8.98
2024-03-24T02:47:57.717Z,9.01
2024-03-24T02:48:57.714Z,8.98
2024-03-24T02:49:57.696Z,8.96
2024-03-24T02:50:57.691Z,8.91
2024-03-24T02:51:57.706Z,8.95
2024-03-24T02:52:57.683Z,8.84
2024-03-24T02:53:57.686Z,8.80
2024-03-24T02:54:57.687Z,8.80
2024-03-24T02:55:57.678Z,8.63
2024-03-24T02:56:57.657Z,8.63
2024-03-24T02:57:57.662Z,8.62
2024-03-24T02:58:57.663Z,8.63
2024-03-24T02:59:57.658Z,8.73
2024-03-24T03:00:57.644Z,8.70
2024-03-24T03:01:57.628Z,8.71
2024-03-24T03:02:57.621Z,8.79
2024-03-24T03:03:57.622Z,8.70
2024-03-24T03:04:57.619Z,8.81
2024-03-24T03:05:57.606Z,8.83
2024-03-24T03:06:57.599Z,8.84
2024-03-24T03:07:57.600Z,8.74
2024-03-24T03:08:57.593Z,8.71
2024-03-24T03:09:57.590Z,8.74
2024-03-24T03:10:57.579Z,8.87
2024-03-24T03:11:57.584Z,8.92
2024-03-24T03:12:57.579Z,8.73
2024-03-24T03:13:57.578Z,8.61
2024-03-24T03:14:57.563Z,8.48
2024-03-24T03:15:57.552Z,8.30
2024-03-24T03:16:57.545Z,8.38
2024-03-24T03:17:57.542Z,8.43
2024-03-24T03:18:57.533Z,8.43
2024-03-24T03:19:57.530Z,8.47
2024-03-24T03:20:57.524Z,8.48
2024-03-24T03:21:57.527Z,8.52
2024-03-24T03:22:57.517Z,8.62
2024-03-24T03:23:57.512Z,8.71
2024-03-24T03:24:57.500Z,8.66
2024-03-24T03:25:57.495Z,8.61
2024-03-24T03:26:57.488Z,8.56
2024-03-24T03:27:57.502Z,8.45
2024-03-24T03:28:57.474Z,8.34
2024-03-24T03:29:57.475Z,8.26
2024-03-24T03:30:57.463Z,8.10
2024-03-24T03:31:57.471Z,8.16
2024-03-24T03:32:57.457Z,8.08
2024-03-24T03:33:57.449Z,8.12
2024-03-24T03:34:57.444Z,8.20
2024-03-24T03:35:57.434Z,8.25
2024-03-24T03:36:57.432Z,8.34
2024-03-24T03:37:57.429Z,8.33
2024-03-24T03:38:57.419Z,8.43
2024-03-24T03:39:57.418Z,8.44
2024-03-24T03:40:57.411Z,8.47
2024-03-24T03:41:57.413Z,8.48
2024-03-24T03:42:57.396Z,8.44
2024-03-24T03:43:57.729Z,8.59
2024-03-24T03:44:57.386Z,8.66
2024-03-24T03:45:57.382Z,8.68
2024-03-24T03:46:57.380Z,8.63
2024-03-24T03:47:57.371Z,8.74
2024-03-24T03:48:57.367Z,8.68
2024-03-24T03:49:57.359Z,8.81
2024-03-24T03:50:57.353Z,8.77
2024-03-24T03:51:57.377Z,8.65
2024-03-24T03:52:57.344Z,8.66
2024-03-24T03:53:57.339Z,8.70
2024-03-24T03:54:57.391Z,8.71
2024-03-24T03:55:57.326Z,8.65
2024-03-24T03:56:57.328Z,8.63
2024-03-24T03:57:57.315Z,8.58
2024-03-24T03:58:57.321Z,8.61
2024-03-24T03:59:57.328Z,8.65
2024-03-24T04:00:57.298Z,8.47
2024-03-24T04:01:57.297Z,8.50
2024-03-24T04:02:57.309Z,8.38
2024-03-24T04:03:57.285Z,8.34
2024-03-24T04:04:57.276Z,8.40
2024-03-24T04:05:57.276Z,8.38
2024-03-24T04:06:57.269Z,8.44
2024-03-24T04:07:57.263Z,8.41
2024-03-24T04:08:57.251Z,8.37
2024-03-24T04:09:57.247Z,8.37
2024-03-24T04:10:57.246Z,8.34
2024-03-24T04:11:57.240Z,8.23
2024-03-24T04:12:57.244Z,8.33
2024-03-24T04:13:57.225Z,8.19
2024-03-24T04:14:57.221Z,8.10
2024-03-24T04:15:57.232Z,8.00
2024-03-24T04:16:57.513Z,7.85
2024-03-24T04:17:57.204Z,7.93
2024-03-24T04:18:57.200Z,8.00
2024-03-24T04:19:57.194Z,7.98
2024-03-24T04:20:57.185Z,7.90
2024-03-24T04:21:57.183Z,7.93
2024-03-24T04:22:57.176Z,8.05
2024-03-24T04:23:57.170Z,8.05
2024-03-24T04:24:57.164Z,8.11
2024-03-24T04:25:57.169Z,8.10
2024-03-24T04:26:57.154Z,8.16
2024-03-24T04:27:57.152Z,8.26
2024-03-24T04:28:57.147Z,8.33
2024-03-24T04:29:57.131Z,8.47
2024-03-24T04:30:57.131Z,8.41
2024-03-24T04:31:57.198Z,8.48
2024-03-24T04:32:57.117Z,8.61
2024-03-24T04:33:57.114Z,8.62
2024-03-24T04:34:57.107Z,8.52
2024-03-24T04:35:57.116Z,8.47
2024-03-24T04:36:57.097Z,8.33
2024-03-24T04:37:57.089Z,8.41
2024-03-24T04:38:57.086Z,8.34
2024-03-24T04:39:57.076Z,8.38
2024-03-24T04:40:57.083Z,8.40
2024-03-24T04:41:57.072Z,8.43
2024-03-24T04:42:57.064Z,8.36
2024-03-24T04:43:57.052Z,8.38
2024-03-24T04:44:57.048Z,8.20
2024-03-24T04:45:57.043Z,8.33
2024-03-24T04:46:57.038Z,8.36
2024-03-24T04:47:57.046Z,8.36
2024-03-24T04:48:57.035Z,8.30
2024-03-24T04:49:57.021Z,8.26
2024-03-24T04:50:57.023Z,8.02
2024-03-24T04:51:57.018Z,8.15
2024-03-24T04:52:57.000Z,8.07
2024-03-24T04:53:56.999Z,8.07
2024-03-24T04:54:56.994Z,8.05
2024-03-24T04:55:56.980Z,8.10
2024-03-24T04:56:56.985Z,8.11
2024-03-24T04:57:56.983Z,7.98
2024-03-24T04:58:56.978Z,8.12
2024-03-24T04:59:56.974Z,8.11
2024-03-24T05:00:56.961Z,8.10
2024-03-24T05:01:56.951Z,8.12
2024-03-24T05:02:56.950Z,8.08
2024-03-24T05:03:56.949Z,8.15
2024-03-24T05:04:56.977Z,8.19
2024-03-24T05:05:56.930Z,8.23
2024-03-24T05:06:56.927Z,8.08
2024-03-24T05:07:56.918Z,8.08
2024-03-24T05:08:56.918Z,8.15
2024-03-24T05:09:56.911Z,8.11
2024-03-24T05:10:56.901Z,8.20
2024-03-24T05:11:56.899Z,8.15
2024-03-24T05:12:56.898Z,8.10
2024-03-24T05:13:56.882Z,8.10
2024-03-24T05:14:56.880Z,8.25
2024-03-24T05:15:56.874Z,8.22
2024-03-24T05:16:56.865Z,8.33
2024-03-24T05:17:56.864Z,8.28
2024-03-24T05:18:56.859Z,8.38
2024-03-24T05:19:56.865Z,8.44
2024-03-24T05:20:56.849Z,8.56
2024-03-24T05:21:56.838Z,8.61
2024-03-24T05:22:56.836Z,8.56
2024-03-24T05:23:56.832Z,8.50
2024-03-24T05:24:56.822Z,8.34
2024-03-24T05:25:56.818Z,8.40
2024-03-24T05:26:56.811Z,8.36
2024-03-24T05:27:56.805Z,8.43
2024-03-24T05:28:56.811Z,8.44
2024-03-24T05:29:56.798Z,8.30
2024-03-24T05:30:56.788Z,8.23
2024-03-24T05:31:56.782Z,8.30
2024-03-24T05:32:56.793Z,8.43
2024-03-24T05:33:56.780Z,8.37
2024-03-24T05:34:56.774Z,8.38
2024-03-24T05:35:56.790Z,8.43
2024-03-24T05:36:56.760Z,8.44
2024-03-24T05:37:56.754Z,8.50
2024-03-24T05:38:56.750Z,8.41
2024-03-24T05:39:56.731Z,8.47
2024-03-24T05:40:56.733Z,8.52
2024-03-24T05:41:56.727Z,8.62
2024-03-24T05:42:56.721Z,8.59
2024-03-24T05:43:56.720Z,8.52
2024-03-24T05:44:56.708Z,8.44
2024-03-24T05:45:56.708Z,8.52
2024-03-24T05:46:56.699Z,8.44
2024-03-24T05:47:56.695Z,8.38
2024-03-24T05:48:56.692Z,8.47
2024-03-24T05:49:56.683Z,8.56
2024-03-24T05:50:56.676Z,8.55
2024-03-24T05:51:56.681Z,8.62
2024-03-24T05:52:56.670Z,8.73
2024-03-24T05:53:56.661Z,8.74
2024-03-24T05:54:56.661Z,8.73
2024-03-24T05:55:56.658Z,8.77
2024-03-24T05:56:56.645Z,8.71
2024-03-24T05:57:56.636Z,8.74
2024-03-24T05:58:56.632Z,8.77
2024-03-24T05:59:56.626Z,8.86
2024-03-24T06:00:56.621Z,8.91
2024-03-24T06:01:56.624Z,8.94
2024-03-24T06:02:56.613Z,8.86
2024-03-24T06:03:56.604Z,8.91
2024-03-24T06:04:56.607Z,8.84
2024-03-24T06:05:56.592Z,8.92
2024-03-24T06:06:56.587Z,8.89
2024-03-24T06:07:56.609Z,8.95
2024-03-24T06:08:56.582Z,8.98
2024-03-24T06:09:56.572Z,9.04
2024-03-24T06:10:56.568Z,9.15
2024-03-24T06:11:56.561Z,9.20
2024-03-24T06:12:56.555Z,9.24
2024-03-24T06:13:56.551Z,9.31
2024-03-24T06:14:56.556Z,9.31
2024-03-24T06:15:56.547Z,9.39
2024-03-24T06:16:56.544Z,9.48
2024-03-24T06:17:56.538Z,9.48
2024-03-24T06:18:56.527Z,9.57
2024-03-24T06:19:56.517Z,9.53
2024-03-24T06:20:56.514Z,9.53
2024-03-24T06:21:56.518Z,9.74
2024-03-24T06:22:56.508Z,9.66
2024-03-24T06:23:56.507Z,9.75
2024-03-24T06:24:56.497Z,9.68
2024-03-24T06:25:56.490Z,9.60
2024-03-24T06:26:56.482Z,9.53
2024-03-24T06:27:56.482Z,9.69
2024-03-24T06:28:56.474Z,9.72
2024-03-24T06:29:56.471Z,9.76
2024-03-24T06:30:56.471Z,9.71
2024-03-24T06:31:56.464Z,9.68
2024-03-24T06:32:56.454Z,9.65
2024-03-24T06:33:56.449Z,9.66
2024-03-24T06:34:56.443Z,9.54
2024-03-24T06:35:56.440Z,9.58
2024-03-24T06:36:56.432Z,9.54
2024-03-24T06:37:56.427Z,9.64
2024-03-24T06:38:56.420Z,9.54
2024-03-24T06:39:56.431Z,9.61
2024-03-24T06:40:56.415Z,9.61
2024-03-24T06:41:56.405Z,9.58
2024-03-24T06:42:56.412Z,9.79
2024-03-24T06:43:56.407Z,9.84
2024-03-24T06:44:56.390Z,9.84
2024-03-24T06:45:56.390Z,9.87
2024-03-24T06:46:56.387Z,9.87
2024-03-24T06:47:56.376Z,9.87
2024-03-24T06:48:56.379Z,9.93
2024-03-24T06:49:56.370Z,10.04
2024-03-24T06:50:56.365Z,9.96
2024-03-24T06:51:56.360Z,10.05
2024-03-24T06:52:56.355Z,10.07
2024-03-24T06:53:56.346Z,10.23
2024-03-24T06:54:56.368Z,10.25
2024-03-24T06:55:56.355Z,10.14
2024-03-24T06:56:56.331Z,10.15
2024-03-24T06:57:56.325Z,10.23
2024-03-24T06:58:56.324Z,10.17
2024-03-24T06:59:56.335Z,10.34
2024-03-24T07:00:56.314Z,10.44
2024-03-24T07:01:56.318Z,10.60
2024-03-24T07:02:56.307Z,10.67
2024-03-24T07:03:56.307Z,10.60
2024-03-24T07:04:56.302Z,10.60
2024-03-24T07:05:56.294Z,10.64
2024-03-24T07:06:56.292Z,10.71
2024-03-24T07:07:56.284Z,10.81
2024-03-24T07:08:56.277Z,10.74
2024-03-24T07:09:56.281Z,10.60
2024-03-24T07:10:56.271Z,10.59
2024-03-24T07:11:56.279Z,10.55
2024-03-24T07:12:56.275Z,10.70
2024-03-24T07:13:56.252Z,10.84
2024-03-24T07:14:56.254Z,10.86
2024-03-24T07:15:56.250Z,11.15
2024-03-24T07:16:56.243Z,11.17
2024-03-24T07:17:56.243Z,11.33
2024-03-24T07:18:56.243Z,11.40
2024-03-24T07:19:56.232Z,11.73
2024-03-24T07:20:56.230Z,12.10
2024-03-24T07:21:56.224Z,12.72
2024-03-24T07:22:56.225Z,13.38
2024-03-24T07:23:56.226Z,14.06
2024-03-24T07:24:56.214Z,14.22
2024-03-24T07:25:56.214Z,14.00
2024-03-24T07:26:56.217Z,13.75
2024-03-24T07:27:56.212Z,13.82
2024-03-24T07:28:56.197Z,14.17
2024-03-24T07:29:56.193Z,14.47
2024-03-24T07:30:56.192Z,14.46
2024-03-24T07:31:56.188Z,14.54
2024-03-24T07:32:56.191Z,14.73
2024-03-24T07:33:56.183Z,15.32
2024-03-24T07:34:56.182Z,15.74
2024-03-24T07:35:56.176Z,15.50
2024-03-24T07:36:56.176Z,15.49
2024-03-24T07:37:56.177Z,15.54
2024-03-24T07:38:56.170Z,15.93
2024-03-24T07:39:56.171Z,16.11
2024-03-24T07:40:56.166Z,16.42
2024-03-24T07:41:56.164Z,17.04
2024-03-24T07:42:56.162Z,17.66
2024-03-24T07:43:56.170Z,18.18
2024-03-24T07:44:56.167Z,18.62
2024-03-24T07:45:56.148Z,18.73
2024-03-24T07:46:56.158Z,18.55
2024-03-24T07:47:56.149Z,18.15
2024-03-24T07:48:56.151Z,18.05
2024-03-24T07:49:56.158Z,17.55
2024-03-24T07:50:56.146Z,16.63
2024-03-24T07:51:56.147Z,16.86
2024-03-24T07:52:58.014Z,16.45
2024-03-24T07:53:56.148Z,16.42
2024-03-24T07:54:56.150Z,16.60
2024-03-24T07:55:56.141Z,16.42
2024-03-24T07:56:56.139Z,16.07
2024-03-24T07:57:56.135Z,16.48
2024-03-24T07:58:56.137Z,16.88
2024-03-24T07:59:56.147Z,17.12
2024-03-24T08:00:56.133Z,17.43
2024-03-24T08:01:56.134Z,17.81
2024-03-24T08:02:56.466Z,17.89
2024-03-24T08:03:56.134Z,17.95
2024-03-24T08:04:56.131Z,18.33
2024-03-24T08:05:56.135Z,18.87
2024-03-24T08:06:56.130Z,19.26
2024-03-24T08:07:56.578Z,19.02
2024-03-24T08:08:56.127Z,18.67
2024-03-24T08:09:56.128Z,17.93
2024-03-24T08:10:56.131Z,17.86
2024-03-24T08:11:56.138Z,17.81
2024-03-24T08:12:56.136Z,17.55
2024-03-24T08:13:56.143Z,17.33
2024-03-24T08:14:56.126Z,17.79
2024-03-24T08:15:56.151Z,18.44
2024-03-24T08:16:56.124Z,18.99
2024-03-24T08:17:56.647Z,19.07
2024-03-24T08:18:56.123Z,19.13
2024-03-24T08:19:56.133Z,18.81
2024-03-24T08:20:57.864Z,18.75
2024-03-24T08:21:56.123Z,18.75
2024-03-24T08:22:56.134Z,18.95
2024-03-24T08:23:56.154Z,19.18
2024-03-24T08:24:56.132Z,19.11
2024-03-24T08:25:56.138Z,18.62
2024-03-24T08:26:56.117Z,18.80
2024-03-24T08:27:56.127Z,18.88
2024-03-24T08:28:56.135Z,19.31
2024-03-24T08:29:56.129Z,19.40
2024-03-24T08:30:56.117Z,19.71
2024-03-24T08:31:56.139Z,20.50
2024-03-24T08:32:56.128Z,20.42
2024-03-24T08:33:56.125Z,20.84
2024-03-24T08:34:56.129Z,20.69
2024-03-24T08:35:56.130Z,20.61
2024-03-24T08:36:56.129Z,20.99
2024-03-24T08:37:56.126Z,20.18
2024-03-24T08:38:56.126Z,19.29
2024-03-24T08:39:56.130Z,18.45
2024-03-24T08:40:56.129Z,18.57
2024-03-24T08:41:57.174Z,19.16
2024-03-24T08:42:56.132Z,19.19
2024-03-24T08:43:56.542Z,18.73
2024-03-24T08:44:56.126Z,18.58
2024-03-24T08:45:56.125Z,18.66
2024-03-24T08:46:56.131Z,18.12
2024-03-24T08:47:56.157Z,17.62
2024-03-24T08:48:56.127Z,17.00
2024-03-24T08:49:56.138Z,17.01
2024-03-24T08:50:56.131Z,17.37
2024-03-24T08:51:56.128Z,17.30
2024-03-24T08:52:56.128Z,16.67
2024-03-24T08:53:56.135Z,15.84
2024-03-24T08:54:56.137Z,15.49
2024-03-24T08:55:56.138Z,15.21
2024-03-24T08:56:56.128Z,15.09
2024-03-24T08:57:56.133Z,14.81
2024-03-24T08:58:56.128Z,14.64
2024-03-24T08:59:56.127Z,14.65
2024-03-24T09:00:56.127Z,14.39
2024-03-24T09:01:56.129Z,14.77
2024-03-24T09:02:56.126Z,14.68
2024-03-24T09:03:56.140Z,14.43
2024-03-24T09:04:56.133Z,14.33
2024-03-24T09:05:56.131Z,14.24
2024-03-24T09:06:56.128Z,14.96
2024-03-24T09:07:56.121Z,15.27
2024-03-24T09:08:56.124Z,15.94
2024-03-24T09:09:56.131Z,16.35
2024-03-24T09:10:56.125Z,16.53
2024-03-24T09:11:56.128Z,16.86
2024-03-24T09:12:56.114Z,16.79
2024-03-24T09:13:56.115Z,17.04
2024-03-24T09:14:56.115Z,17.11
2024-03-24T09:15:56.120Z,17.12
2024-03-24T09:16:56.121Z,17.22
2024-03-24T09:17:56.125Z,17.34
2024-03-24T09:18:56.106Z,17.30
2024-03-24T09:19:56.137Z,17.37
2024-03-24T09:20:56.106Z,17.18
2024-03-24T09:21:56.110Z,17.84
2024-03-24T09:22:56.129Z,17.46
2024-03-24T09:23:56.356Z,17.18
2024-03-24T09:24:56.109Z,16.56
2024-03-24T09:25:56.108Z,16.34
2024-03-24T09:26:56.109Z,16.43
2024-03-24T09:27:56.106Z,17.77
2024-03-24T09:28:56.115Z,17.92
2024-03-24T09:29:56.119Z,17.75
2024-03-24T09:30:56.105Z,17.79
2024-03-24T09:31:56.107Z,17.72
2024-03-24T09:32:56.102Z,17.11
2024-03-24T09:33:56.102Z,16.67
2024-03-24T09:34:58.893Z,16.58
2024-03-24T09:35:56.125Z,16.25
2024-03-24T09:36:56.102Z,15.96
2024-03-24T09:37:56.098Z,15.74
2024-03-24T09:38:56.102Z,15.39
2024-03-24T09:39:56.099Z,15.07
2024-03-24T09:40:56.094Z,14.91
2024-03-24T09:41:56.096Z,14.52
2024-03-24T09:42:56.096Z,14.36
2024-03-24T09:43:56.094Z,13.97
2024-03-24T09:44:56.090Z,13.81
2024-03-24T09:45:56.090Z,13.60
2024-03-24T09:46:56.091Z,13.51
2024-03-24T09:47:56.093Z,13.36
2024-03-24T09:48:56.103Z,13.23
2024-03-24T09:49:56.137Z,13.26
2024-03-24T09:50:56.084Z,13.19
2024-03-24T09:51:56.109Z,13.23
2024-03-24T09:52:56.085Z,13.12
2024-03-24T09:53:56.080Z,13.04
2024-03-24T09:54:56.076Z,13.01
2024-03-24T09:55:56.092Z,13.00
2024-03-24T09:56:56.082Z,13.04
2024-03-24T09:58:06.860Z,12.96
2024-03-24T09:58:56.071Z,12.85
2024-03-24T09:59:56.081Z,12.79
2024-03-24T10:00:56.065Z,12.87
2024-03-24T10:01:56.074Z,12.82
2024-03-24T10:02:56.064Z,12.79
2024-03-24T10:03:56.064Z,12.74
2024-03-24T10:04:56.060Z,12.70
2024-03-24T10:05:56.064Z,12.54
2024-03-24T10:06:56.070Z,12.68
2024-03-24T10:07:56.067Z,12.59
2024-03-24T10:08:56.054Z,12.47
2024-03-24T10:09:56.046Z,12.50
2024-03-24T10:10:56.047Z,12.41
2024-03-24T10:11:56.051Z,12.42
2024-03-24T10:12:56.058Z,12.39
2024-03-24T10:13:56.045Z,12.41
2024-03-24T10:14:56.039Z,12.42
2024-03-24T10:15:56.050Z,12.31
2024-03-24T10:16:56.038Z,12.31
2024-03-24T10:17:56.026Z,12.34
2024-03-24T10:18:56.037Z,12.34
2024-03-24T10:19:56.024Z,12.39
2024-03-24T10:20:56.019Z,12.29
2024-03-24T10:21:56.016Z,12.21
2024-03-24T10:22:56.018Z,12.28
2024-03-24T10:23:56.029Z,12.23
2024-03-24T10:24:56.007Z,12.13
2024-03-24T10:25:56.007Z,12.20
2024-03-24T10:26:56.005Z,12.12
2024-03-24T10:27:56.008Z,12.01
2024-03-24T10:28:56.012Z,12.01
2024-03-24T10:29:55.999Z,11.96
2024-03-24T10:30:55.990Z,11.96
2024-03-24T10:31:55.987Z,11.76
2024-03-24T10:32:55.986Z,11.69
2024-03-24T10:33:55.981Z,11.79
2024-03-24T10:34:55.991Z,11.69
2024-03-24T10:35:55.975Z,11.35
2024-03-24T10:36:55.985Z,11.32
2024-03-24T10:37:55.971Z,11.24
2024-03-24T10:38:55.974Z,11.03
2024-03-24T10:39:55.980Z,11.03
2024-03-24T10:40:55.957Z,11.03
2024-03-24T10:41:55.959Z,11.15
2024-03-24T10:42:55.986Z,11.07
2024-03-24T10:43:55.951Z,11.11
2024-03-24T10:44:55.944Z,11.07
2024-03-24T10:45:55.939Z,10.85
2024-03-24T10:46:55.949Z,10.82
2024-03-24T10:47:55.939Z,10.81
2024-03-24T10:48:55.929Z,10.79
2024-03-24T10:49:55.941Z,10.74
2024-03-24T10:50:55.934Z,10.56
2024-03-24T10:51:55.920Z,10.55
2024-03-24T10:52:58.133Z,10.41
2024-03-24T10:53:55.928Z,10.33
2024-03-24T10:54:55.912Z,10.38
2024-03-24T10:55:55.915Z,10.42
2024-03-24T10:56:55.902Z,10.27
2024-03-24T10:57:56.135Z,10.20
2024-03-24T10:58:55.908Z,10.14
2024-03-24T10:59:55.902Z,9.91
2024-03-24T11:00:55.888Z,9.94
2024-03-24T11:01:55.896Z,10.05
2024-03-24T11:02:55.883Z,10.11
2024-03-24T11:03:55.874Z,10.08
2024-03-24T11:04:55.870Z,10.14
2024-03-24T11:05:55.875Z,9.91
2024-03-24T11:06:55.863Z,9.90
2024-03-24T11:07:55.859Z,9.91
2024-03-24T11:08:55.858Z,10.02
2024-03-24T11:09:55.851Z,10.04
2024-03-24T11:10:55.846Z,10.15
2024-03-24T11:11:55.855Z,10.05
2024-03-24T11:12:55.838Z,10.11
2024-03-24T11:13:55.851Z,10.04
2024-03-24T11:14:55.831Z,10.04
2024-03-24T11:15:55.828Z,10.04
2024-03-24T11:16:55.825Z,10.04
2024-03-24T11:17:55.821Z,10.09
2024-03-24T11:18:57.259Z,10.15
2024-03-24T11:19:55.820Z,10.11
2024-03-24T11:20:55.807Z,10.11
2024-03-24T11:21:55.818Z,9.89
2024-03-24T11:22:55.791Z,9.87
2024-03-24T11:23:55.797Z,10.04
2024-03-24T11:24:55.780Z,10.08
2024-03-24T11:25:55.813Z,10.08
2024-03-24T11:26:55.828Z,10.02
2024-03-24T11:27:55.791Z,10.11
2024-03-24T11:28:55.779Z,10.09
2024-03-24T11:29:56.172Z,10.12
2024-03-24T11:30:55.760Z,10.08
2024-03-24T11:31:55.769Z,10.12
2024-03-24T11:32:55.760Z,10.14
2024-03-24T11:33:55.754Z,10.15
2024-03-24T11:34:55.741Z,10.11
2024-03-24T11:35:55.737Z,10.18
2024-03-24T11:36:55.731Z,10.32
2024-03-24T11:37:55.730Z,10.15
2024-03-24T11:38:55.720Z,10.20
2024-03-24T11:39:55.723Z,10.14
2024-03-24T11:40:55.724Z,10.12
2024-03-24T11:41:55.712Z,10.20
2024-03-24T11:42:55.711Z,10.33
2024-03-24T11:43:55.718Z,10.27
2024-03-24T11:44:55.699Z,10.47
2024-03-24T11:45:55.697Z,10.53
2024-03-24T11:46:55.717Z,10.64
2024-03-24T11:47:55.685Z,10.67
2024-03-24T11:48:55.680Z,10.68
2024-03-24T11:49:55.676Z,10.71
2024-03-24T11:50:55.667Z,10.68
2024-03-24T11:51:55.668Z,10.78
2024-03-24T11:52:55.662Z,10.81
2024-03-24T11:53:55.660Z,10.66
2024-03-24T11:54:55.657Z,10.78
2024-03-24T11:55:55.648Z,10.78
2024-03-24T11:56:55.643Z,10.66
2024-03-24T11:57:55.643Z,10.52
2024-03-24T11:58:55.641Z,10.55
2024-03-24T11:59:55.649Z,10.56
2024-03-24T12:00:55.627Z,10.51
2024-03-24T12:01:55.637Z,10.51
2024-03-24T12:02:55.635Z,10.53
2024-03-24T12:03:55.619Z,10.60
2024-03-24T12:04:55.611Z,10.52
2024-03-24T12:05:55.630Z,10.53
2024-03-24T12:06:55.612Z,10.42
2024-03-24T12:07:55.603Z,10.29
2024-03-24T12:08:55.597Z,10.47
2024-03-24T12:09:55.589Z,10.42
2024-03-24T12:10:55.585Z,10.36
2024-03-24T12:11:55.583Z,10.26
2024-03-24T12:12:55.583Z,10.26
2024-03-24T12:13:55.578Z,10.14
2024-03-24T12:14:55.566Z,10.12
2024-03-24T12:15:55.584Z,10.25
2024-03-24T12:16:55.564Z,10.27
2024-03-24T12:17:55.554Z,10.45
2024-03-24T12:18:55.552Z,10.47
2024-03-24T12:19:55.550Z,10.48
2024-03-24T12:20:55.544Z,10.48
2024-03-24T12:21:55.544Z,10.48
2024-03-24T12:22:55.532Z,10.48
2024-03-24T12:23:55.536Z,10.42
2024-03-24T12:24:55.550Z,10.38
2024-03-24T12:25:55.524Z,10.47
2024-03-24T12:26:55.514Z,10.55
2024-03-24T12:27:55.512Z,10.41
2024-03-24T12:28:55.529Z,10.48
2024-03-24T12:29:55.520Z,10.48
2024-03-24T12:30:55.499Z,10.55
2024-03-24T12:31:55.507Z,10.67
2024-03-24T12:32:55.494Z,10.70
2024-03-24T12:33:55.488Z,10.70
2024-03-24T12:34:55.877Z,10.64
2024-03-24T12:35:55.500Z,10.78
2024-03-24T12:36:55.471Z,10.70
2024-03-24T12:37:55.479Z,10.76
2024-03-24T12:38:55.461Z,10.78
2024-03-24T12:39:55.476Z,10.78
2024-03-24T12:40:55.575Z,10.70
2024-03-24T12:41:55.461Z,10.53
2024-03-24T12:42:55.456Z,10.66
2024-03-24T12:43:55.441Z,10.81
2024-03-24T12:44:55.433Z,10.84
2024-03-24T12:45:55.547Z,10.82
2024-03-24T12:46:55.430Z,10.68
2024-03-24T12:47:55.439Z,10.74
2024-03-24T12:48:55.436Z,10.85
2024-03-24T12:50:07.724Z,10.96
2024-03-24T12:50:55.438Z,10.85
2024-03-24T12:51:55.407Z,11.02
2024-03-24T12:52:55.441Z,11.06
2024-03-24T12:53:55.399Z,11.29
2024-03-24T12:54:55.392Z,11.27
2024-03-24T12:55:55.385Z,11.17
2024-03-24T12:56:55.387Z,11.36
2024-03-24T12:57:55.383Z,11.39
2024-03-24T12:58:58.124Z,11.15
2024-03-24T12:59:55.382Z,11.29
2024-03-24T13:00:55.365Z,11.17
2024-03-24T13:01:55.371Z,11.09
2024-03-24T13:02:55.366Z,11.18
2024-03-24T13:03:55.396Z,11.25
2024-03-24T13:04:55.351Z,11.39
2024-03-24T13:05:57.801Z,11.42
2024-03-24T13:06:55.350Z,11.40